createdAt,value
2018-04-02T00:00:42.803Z,6.90
2018-04-02T00:03:10.624Z,6.90
2018-04-02T00:05:38.254Z,6.90
2018-04-02T00:08:05.928Z,6.80
2018-04-02T00:10:34.436Z,6.80
2018-04-02T00:13:02.188Z,6.80
2018-04-02T00:15:30.008Z,6.80
2018-04-02T00:17:57.805Z,6.80
2018-04-02T00:20:25.446Z,6.80
2018-04-02T00:22:53.105Z,6.80
2018-04-02T00:25:20.652Z,6.80
2018-04-02T00:27:48.214Z,6.90
2018-04-02T00:30:15.882Z,6.90
2018-04-02T00:32:43.565Z,6.90
2018-04-02T00:35:11.372Z,6.90
2018-04-02T00:37:39.047Z,6.90
2018-04-02T00:40:06.822Z,6.90
2018-04-02T00:42:35.179Z,6.90
2018-04-02T00:45:02.966Z,6.90
2018-04-02T00:47:31.667Z,6.90
2018-04-02T00:49:59.393Z,7.00
2018-04-02T00:52:27.183Z,7.00
2018-04-02T00:54:54.949Z,7.00
2018-04-02T00:57:22.621Z,7.00
2018-04-02T00:59:50.277Z,7.00
2018-04-02T01:02:18.860Z,7.00
2018-04-02T01:04:46.608Z,7.00
2018-04-02T01:07:14.383Z,7.00
2018-04-02T01:09:42.282Z,7.00
2018-04-02T01:12:11.796Z,7.10
2018-04-02T01:14:39.670Z,7.00
2018-04-02T01:17:07.564Z,7.10
2018-04-02T01:19:35.233Z,7.00
2018-04-02T01:22:02.866Z,7.00
2018-04-02T01:24:30.438Z,7.00
2018-04-02T01:26:58.035Z,7.10
2018-04-02T01:29:25.741Z,7.10
2018-04-02T01:31:53.380Z,7.10
2018-04-02T01:34:20.952Z,7.10
2018-04-02T01:36:48.636Z,7.00
2018-04-02T01:39:16.327Z,7.00
2018-04-02T01:41:44.035Z,7.00
2018-04-02T01:44:11.968Z,6.90
2018-04-02T01:46:40.475Z,6.90
2018-04-02T01:49:08.072Z,6.90
2018-04-02T01:51:37.086Z,6.90
2018-04-02T01:54:04.673Z,6.80
2018-04-02T01:56:32.340Z,6.80
2018-04-02T01:59:00.049Z,6.80
2018-04-02T02:01:27.705Z,6.80
2018-04-02T02:03:56.543Z,6.70
2018-04-02T02:06:24.251Z,6.70
2018-04-02T02:08:51.881Z,6.70
2018-04-02T02:11:20.831Z,6.70
2018-04-02T02:13:48.539Z,6.60
2018-04-02T02:16:16.316Z,6.70
2018-04-02T02:18:44.636Z,6.60
2018-04-02T02:21:12.365Z,6.50
2018-04-02T02:23:40.026Z,6.50
2018-04-02T02:26:07.770Z,6.40
2018-04-02T02:28:36.267Z,6.20
2018-04-02T02:31:03.877Z,6.20
2018-04-02T02:33:31.521Z,6.20
2018-04-02T02:35:59.251Z,6.20
2018-04-02T02:38:26.929Z,6.10
2018-04-02T02:40:55.316Z,6.00
2018-04-02T02:43:23.453Z,6.00
2018-04-02T02:45:51.109Z,6.00
2018-04-02T02:48:18.732Z,6.00
2018-04-02T02:50:46.428Z,6.00
2018-04-02T02:53:14.589Z,6.00
2018-04-02T02:55:42.211Z,6.00
2018-04-02T02:58:10.081Z,6.00
2018-04-02T03:00:37.790Z,6.00
2018-04-02T03:03:05.465Z,6.00
2018-04-02T03:05:33.049Z,6.00
2018-04-02T03:08:01.556Z,6.00
2018-04-02T03:10:29.252Z,6.00
2018-04-02T03:12:56.870Z,6.00
2018-04-02T03:15:24.486Z,6.00
2018-04-02T03:17:52.137Z,6.00
2018-04-02T03:20:19.908Z,6.00
2018-04-02T03:22:47.519Z,6.00
2018-04-02T03:25:15.908Z,6.00
2018-04-02T03:27:43.560Z,6.00
2018-04-02T03:30:11.370Z,6.00
2018-04-02T03:32:39.608Z,6.00
2018-04-02T03:35:07.208Z,6.00
2018-04-02T03:37:34.828Z,6.00
2018-04-02T03:40:02.430Z,6.10
2018-04-02T03:42:30.123Z,6.00
2018-04-02T03:44:58.486Z,6.00
2018-04-02T03:47:26.226Z,6.00
2018-04-02T03:49:53.900Z,6.00
2018-04-02T03:52:21.466Z,6.00
2018-04-02T03:54:49.863Z,6.00
2018-04-02T03:57:17.412Z,5.90
2018-04-02T03:59:44.954Z,5.90
2018-04-02T04:02:12.702Z,5.90
2018-04-02T04:04:41.275Z,5.90
2018-04-02T04:07:08.846Z,6.00
2018-04-02T04:09:39.186Z,6.00
2018-04-02T04:12:06.804Z,5.90
2018-04-02T04:14:34.406Z,5.90
2018-04-02T04:17:02.102Z,6.00
2018-04-02T04:19:29.810Z,5.90
2018-04-02T04:21:58.080Z,5.90
2018-04-02T04:24:25.725Z,6.00
2018-04-02T04:26:53.635Z,6.00
2018-04-02T04:29:21.420Z,6.00
2018-04-02T04:31:49.264Z,6.00
2018-04-02T04:34:17.073Z,6.00
2018-04-02T04:36:45.684Z,5.90
2018-04-02T04:39:13.472Z,5.90
2018-04-02T04:41:41.427Z,5.90
2018-04-02T04:44:09.248Z,6.00
2018-04-02T04:46:37.073Z,6.00
2018-04-02T04:49:05.542Z,6.00
2018-04-02T04:51:34.021Z,6.00
2018-04-02T04:54:01.696Z,6.10
2018-04-02T04:56:29.308Z,6.10
2018-04-02T04:58:57.679Z,6.20
2018-04-02T05:01:25.191Z,6.10
2018-04-02T05:03:53.605Z,6.20
2018-04-02T05:06:21.174Z,6.20
2018-04-02T05:08:48.860Z,6.10
2018-04-02T05:11:17.211Z,6.10
2018-04-02T05:13:44.804Z,6.10
2018-04-02T05:16:12.335Z,6.10
2018-04-02T05:18:39.926Z,6.10
2018-04-02T05:21:07.766Z,6.10
2018-04-02T05:23:36.732Z,6.10
2018-04-02T05:26:04.515Z,6.00
2018-04-02T05:28:32.138Z,6.10
2018-04-02T05:30:59.872Z,6.10
2018-04-02T05:33:27.340Z,6.10
2018-04-02T05:35:55.742Z,6.30
2018-04-02T05:38:23.402Z,6.30
2018-04-02T05:40:51.017Z,6.40
2018-04-02T05:43:19.689Z,6.50
2018-04-02T05:45:47.359Z,6.60
2018-04-02T05:48:15.074Z,6.80
2018-04-02T05:50:42.781Z,6.90
2018-04-02T05:53:11.366Z,7.10
2018-04-02T05:55:39.229Z,7.10
2018-04-02T05:58:06.885Z,7.20
2018-04-02T06:00:34.507Z,7.20
2018-04-02T06:03:02.094Z,7.30
2018-04-02T06:05:29.783Z,7.40
2018-04-02T06:07:57.399Z,7.40
2018-04-02T06:10:25.046Z,7.40
2018-04-02T06:12:52.769Z,7.50
2018-04-02T06:15:20.413Z,7.50
2018-04-02T06:17:47.974Z,7.60
2018-04-02T06:20:15.574Z,7.60
2018-04-02T06:22:43.275Z,7.70
2018-04-02T06:25:13.100Z,7.70
2018-04-02T06:27:40.682Z,7.80
2018-04-02T06:30:08.312Z,7.90
2018-04-02T06:32:35.953Z,8.00
2018-04-02T06:35:03.604Z,8.10
2018-04-02T06:37:31.251Z,8.10
2018-04-02T06:39:58.802Z,8.10
2018-04-02T06:42:26.455Z,8.20
2018-04-02T06:44:54.092Z,8.30
2018-04-02T06:47:21.760Z,8.30
2018-04-02T06:49:49.424Z,8.40
2018-04-02T06:52:17.089Z,8.40
2018-04-02T06:54:45.467Z,8.60
2018-04-02T06:57:14.874Z,8.60
2018-04-02T06:59:42.635Z,8.60
2018-04-02T07:02:10.339Z,8.70
2018-04-02T07:04:37.940Z,8.80
2018-04-02T07:07:05.877Z,8.80
2018-04-02T07:09:33.782Z,8.90
2018-04-02T07:12:01.538Z,9.00
2018-04-02T07:14:29.546Z,9.10
2018-04-02T07:16:57.284Z,9.10
2018-04-02T07:19:25.028Z,9.20
2018-04-02T07:21:52.838Z,9.30
2018-04-02T07:24:20.481Z,9.30
2018-04-02T07:26:48.128Z,9.40
2018-04-02T07:29:15.771Z,9.50
2018-04-02T07:31:43.428Z,9.60
2018-04-02T07:34:11.076Z,9.70
2018-04-02T07:36:38.775Z,9.70
2018-04-02T07:39:06.732Z,9.80
2018-04-02T07:41:34.339Z,9.90
2018-04-02T07:44:02.800Z,10.00
2018-04-02T07:46:30.567Z,10.00
2018-04-02T07:48:58.375Z,10.10
2018-04-02T07:51:26.096Z,10.20
2018-04-02T07:53:54.013Z,10.20
2018-04-02T07:56:21.942Z,10.30
2018-04-02T07:58:50.001Z,10.40
2018-04-02T08:01:17.822Z,10.40
2018-04-02T08:03:46.583Z,10.40
2018-04-02T08:06:15.064Z,10.30
2018-04-02T08:08:43.079Z,10.30
2018-04-02T08:11:10.952Z,10.30
2018-04-02T08:13:38.698Z,10.20
2018-04-02T08:16:06.561Z,10.30
2018-04-02T08:18:34.232Z,10.30
2018-04-02T08:21:02.724Z,10.60
2018-04-02T08:23:30.544Z,10.50
2018-04-02T08:26:00.053Z,10.90
2018-04-02T08:28:27.902Z,10.80
2018-04-02T08:30:56.432Z,11.20
2018-04-02T08:33:24.184Z,11.10
2018-04-02T08:35:51.872Z,11.30
2018-04-02T08:38:19.583Z,11.30
2018-04-02T08:40:48.139Z,11.60
2018-04-02T08:43:16.048Z,11.60
2018-04-02T08:45:43.818Z,11.70
2018-04-02T08:48:11.749Z,11.70
2018-04-02T08:50:39.712Z,11.90
2018-04-02T08:53:07.577Z,11.90
2018-04-02T08:55:35.506Z,12.00
2018-04-02T08:58:03.334Z,12.00
2018-04-02T09:00:31.053Z,12.00
2018-04-02T09:02:58.858Z,12.10
2018-04-02T09:05:27.358Z,12.50
2018-04-02T09:07:55.365Z,12.40
2018-04-02T09:10:23.329Z,12.70
2018-04-02T09:12:51.204Z,12.80
2018-04-02T09:15:18.951Z,12.80
2018-04-02T09:17:47.044Z,12.80
2018-04-02T09:20:14.884Z,12.60
2018-04-02T09:22:43.744Z,12.60
2018-04-02T09:25:11.533Z,12.60
2018-04-02T09:27:40.410Z,12.70
2018-04-02T09:30:08.409Z,12.80
2018-04-02T09:32:36.974Z,12.80
2018-04-02T09:35:04.618Z,12.70
2018-04-02T09:37:32.350Z,13.00
2018-04-02T09:40:01.005Z,13.50
2018-04-02T09:42:28.640Z,13.40
2018-04-02T09:44:56.412Z,13.50
2018-04-02T09:47:24.131Z,13.60
2018-04-02T09:49:51.916Z,13.70
2018-04-02T09:52:19.732Z,13.70
2018-04-02T09:54:47.649Z,13.80
2018-04-02T09:57:15.461Z,14.00
2018-04-02T09:59:43.295Z,14.20
2018-04-02T10:02:13.967Z,14.10
2018-04-02T10:04:43.855Z,14.00
2018-04-02T10:07:11.684Z,14.00
2018-04-02T10:09:40.302Z,14.20
2018-04-02T10:12:10.190Z,14.10
2018-04-02T10:14:37.958Z,14.10
2018-04-02T10:17:05.676Z,14.10
2018-04-02T10:19:33.563Z,14.20
2018-04-02T10:22:01.412Z,14.00
2018-04-02T10:24:29.359Z,14.20
2018-04-02T10:26:57.193Z,14.30
2018-04-02T10:29:26.123Z,14.10
2018-04-02T10:31:55.210Z,14.10
2018-04-02T10:34:23.015Z,14.30
2018-04-02T10:36:51.041Z,14.50
2018-04-02T10:39:18.772Z,14.40
2018-04-02T10:41:46.760Z,14.10
2018-04-02T10:44:14.687Z,14.10
2018-04-02T10:46:43.273Z,14.20
2018-04-02T10:49:12.437Z,14.20
2018-04-02T10:51:40.219Z,14.40
2018-04-02T10:54:08.531Z,14.50
2018-04-02T10:56:36.211Z,14.40
2018-04-02T10:59:05.979Z,14.40
2018-04-02T11:01:33.725Z,14.20
2018-04-02T11:04:01.990Z,14.30
2018-04-02T11:06:31.251Z,14.30
2018-04-02T11:08:59.080Z,14.20
2018-04-02T11:11:26.830Z,14.40
2018-04-02T11:13:54.455Z,14.40
2018-04-02T11:16:22.982Z,14.60
2018-04-02T11:18:50.833Z,14.50
2018-04-02T11:21:18.466Z,14.70
2018-04-02T11:23:47.695Z,15.00
2018-04-02T11:26:15.393Z,14.90
2018-04-02T11:28:43.133Z,15.10
2018-04-02T11:31:10.835Z,15.10
2018-04-02T11:33:38.522Z,15.40
2018-04-02T11:36:06.135Z,15.40
2018-04-02T11:38:33.808Z,15.40
2018-04-02T11:41:01.730Z,14.80
2018-04-02T11:43:29.749Z,14.80
2018-04-02T11:45:57.504Z,15.00
2018-04-02T11:48:26.017Z,15.10
2018-04-02T11:50:54.732Z,15.40
2018-04-02T11:53:22.721Z,15.30
2018-04-02T11:55:50.390Z,15.10
2018-04-02T11:58:18.137Z,15.10
2018-04-02T12:00:45.693Z,15.30
2018-04-02T12:03:13.291Z,15.40
2018-04-02T12:05:40.890Z,15.50
2018-04-02T12:08:09.274Z,15.90
2018-04-02T12:10:36.890Z,15.80
2018-04-02T12:13:04.589Z,15.70
2018-04-02T12:15:32.213Z,15.80
2018-04-02T12:17:59.813Z,16.10
2018-04-02T12:20:28.254Z,16.40
2018-04-02T12:22:55.820Z,16.30
2018-04-02T12:25:23.403Z,16.30
2018-04-02T12:27:50.982Z,16.30
2018-04-02T12:30:18.640Z,16.30
2018-04-02T12:32:46.179Z,16.50
2018-04-02T12:35:14.620Z,16.80
2018-04-02T12:37:42.217Z,16.70
2018-04-02T12:40:09.859Z,17.00
2018-04-02T12:42:38.285Z,17.00
2018-04-02T12:45:06.774Z,16.80
2018-04-02T12:47:34.353Z,16.80
2018-04-02T12:50:02.009Z,17.10
2018-04-02T12:52:29.572Z,17.40
2018-04-02T12:54:57.159Z,17.30
2018-04-02T12:57:24.747Z,17.30
2018-04-02T12:59:52.386Z,17.30
2018-04-02T13:02:19.921Z,17.40
2018-04-02T13:04:47.633Z,17.60
2018-04-02T13:07:16.049Z,17.70
2018-04-02T13:09:44.999Z,17.70
2018-04-02T13:12:12.589Z,17.90
2018-04-02T13:14:40.469Z,18.00
2018-04-02T13:17:08.060Z,18.20
2018-04-02T13:19:35.642Z,18.30
2018-04-02T13:22:04.178Z,17.80
2018-04-02T13:24:31.830Z,17.70
2018-04-02T13:26:59.475Z,17.80
2018-04-02T13:29:27.080Z,17.90
2018-04-02T13:31:54.701Z,18.10
2018-04-02T13:34:22.314Z,18.10
2018-04-02T13:36:50.711Z,17.80
2018-04-02T13:39:18.549Z,17.70
2018-04-02T13:41:47.177Z,17.90
2018-04-02T13:44:15.002Z,17.80
2018-04-02T13:46:42.768Z,17.90
2018-04-02T13:49:10.704Z,18.10
2018-04-02T13:51:38.669Z,18.20
2018-04-02T13:54:06.590Z,18.40
2018-04-02T13:56:34.788Z,18.50
2018-04-02T13:59:03.343Z,18.60
2018-04-02T14:01:31.929Z,18.50
2018-04-02T14:03:59.754Z,18.50
2018-04-02T14:06:27.598Z,18.50
2018-04-02T14:08:55.493Z,18.40
2018-04-02T14:11:23.451Z,18.50
2018-04-02T14:13:51.307Z,18.20
2018-04-02T14:16:19.858Z,18.10
2018-04-02T14:18:48.521Z,18.00
2018-04-02T14:21:16.356Z,17.90
2018-04-02T14:23:44.206Z,18.00
2018-04-02T14:26:11.978Z,18.10
2018-04-02T14:28:39.687Z,18.10
2018-04-02T14:31:07.611Z,18.20
2018-04-02T14:33:35.380Z,18.10
2018-04-02T14:36:03.021Z,18.40
2018-04-02T14:38:30.759Z,18.40
2018-04-02T14:40:58.406Z,18.50
2018-04-02T14:43:26.151Z,18.30
2018-04-02T14:45:53.786Z,18.30
2018-04-02T14:48:21.377Z,18.40
2018-04-02T14:50:49.184Z,18.30
2018-04-02T14:53:17.000Z,18.30
2018-04-02T14:55:44.765Z,18.30
2018-04-02T14:58:13.739Z,18.30
2018-04-02T15:00:41.517Z,18.30
2018-04-02T15:03:09.187Z,18.00
2018-04-02T15:05:37.847Z,18.00
2018-04-02T15:08:05.559Z,18.10
2018-04-02T15:10:33.250Z,18.00
2018-04-02T15:13:00.994Z,17.90
2018-04-02T15:15:29.540Z,17.90
2018-04-02T15:17:57.111Z,17.90
2018-04-02T15:20:24.781Z,17.90
2018-04-02T15:22:52.383Z,17.80
2018-04-02T15:25:20.019Z,17.90
2018-04-02T15:27:47.675Z,17.70
2018-04-02T15:30:15.302Z,17.70
2018-04-02T15:32:43.084Z,17.50
2018-04-02T15:35:10.729Z,17.40
2018-04-02T15:37:38.287Z,17.40
2018-04-02T15:40:05.909Z,17.40
2018-04-02T15:42:35.088Z,17.10
2018-04-02T15:45:02.740Z,17.00
2018-04-02T15:47:30.317Z,16.90
2018-04-02T15:49:57.968Z,16.70
2018-04-02T15:52:25.741Z,16.60
2018-04-02T15:54:53.551Z,16.50
2018-04-02T15:57:21.249Z,16.40
2018-04-02T15:59:49.405Z,16.40
2018-04-02T16:02:17.166Z,16.20
2018-04-02T16:04:44.875Z,16.20
2018-04-02T16:07:12.645Z,16.10
2018-04-02T16:09:41.089Z,16.00
2018-04-02T16:12:08.743Z,16.00
2018-04-02T16:14:36.331Z,15.90
2018-04-02T16:17:04.083Z,15.80
2018-04-02T16:19:31.741Z,15.60
2018-04-02T16:21:59.407Z,15.50
2018-04-02T16:24:27.127Z,15.30
2018-04-02T16:26:54.960Z,15.10
2018-04-02T16:29:22.558Z,15.00
2018-04-02T16:31:50.171Z,15.00
2018-04-02T16:34:17.779Z,14.90
2018-04-02T16:36:45.419Z,14.70
2018-04-02T16:39:13.157Z,14.60
2018-04-02T16:41:40.837Z,14.50
2018-04-02T16:44:09.249Z,14.20
2018-04-02T16:46:36.863Z,14.20
2018-04-02T16:49:04.463Z,14.20
2018-04-02T16:51:32.168Z,14.00
2018-04-02T16:53:59.887Z,13.90
2018-04-02T16:56:28.317Z,13.70
2018-04-02T16:58:55.944Z,13.60
2018-04-02T17:01:23.554Z,13.60
2018-04-02T17:03:51.178Z,13.50
2018-04-02T17:06:18.798Z,13.50
2018-04-02T17:08:47.192Z,13.30
2018-04-02T17:11:14.829Z,13.30
2018-04-02T17:13:42.577Z,13.20
2018-04-02T17:16:10.990Z,13.00
2018-04-02T17:18:38.660Z,13.00
2018-04-02T17:21:06.302Z,12.90
2018-04-02T17:23:34.053Z,12.80
2018-04-02T17:26:02.545Z,12.60
2018-04-02T17:28:31.108Z,12.60
2018-04-02T17:30:58.933Z,12.50
2018-04-02T17:33:26.797Z,12.40
2018-04-02T17:35:54.630Z,12.40
2018-04-02T17:38:24.127Z,12.20
2018-04-02T17:40:51.772Z,12.10
2018-04-02T17:43:19.403Z,12.10
2018-04-02T17:45:47.111Z,12.00
2018-04-02T17:48:14.871Z,12.00
2018-04-02T17:50:42.531Z,12.00
2018-04-02T17:53:10.164Z,11.90
2018-04-02T17:55:37.884Z,11.80
2018-04-02T17:58:05.532Z,11.80
2018-04-02T18:00:33.224Z,11.70
2018-04-02T18:03:00.839Z,11.60
2018-04-02T18:05:28.515Z,11.60
2018-04-02T18:07:56.139Z,11.50
2018-04-02T18:10:23.862Z,11.40
2018-04-02T18:12:51.524Z,11.30
2018-04-02T18:15:19.323Z,11.20
2018-04-02T18:17:47.103Z,11.20
2018-04-02T18:20:14.855Z,11.10
2018-04-02T18:22:42.621Z,11.00
2018-04-02T18:25:10.346Z,10.90
2018-04-02T18:27:38.109Z,10.90
2018-04-02T18:30:06.355Z,10.90
2018-04-02T18:32:34.323Z,10.90
2018-04-02T18:35:02.242Z,10.90
2018-04-02T18:37:30.112Z,10.80
2018-04-02T18:39:57.943Z,10.80
2018-04-02T18:42:25.694Z,10.80
2018-04-02T18:44:53.306Z,10.70
2018-04-02T18:47:21.299Z,10.80
2018-04-02T18:49:49.042Z,10.70
2018-04-02T18:52:16.767Z,10.70
2018-04-02T18:54:44.459Z,10.70
2018-04-02T18:57:12.175Z,10.70
2018-04-02T18:59:40.104Z,10.70
2018-04-02T19:02:08.000Z,10.70
2018-04-02T19:04:35.930Z,10.70
2018-04-02T19:07:04.053Z,10.70
2018-04-02T19:09:32.037Z,10.60
2018-04-02T19:12:00.046Z,10.60
2018-04-02T19:14:28.318Z,10.50
2018-04-02T19:16:56.072Z,10.50
2018-04-02T19:19:24.011Z,10.40
2018-04-02T19:21:51.821Z,10.40
2018-04-02T19:24:19.773Z,10.40
2018-04-02T19:26:47.646Z,10.40
2018-04-02T19:29:16.719Z,10.40
2018-04-02T19:31:45.566Z,10.30
2018-04-02T19:34:14.223Z,10.30
2018-04-02T19:36:42.254Z,10.20
2018-04-02T19:39:10.154Z,10.20
2018-04-02T19:41:38.015Z,10.20
2018-04-02T19:44:05.635Z,10.20
2018-04-02T19:46:34.180Z,10.10
2018-04-02T19:49:02.139Z,10.00
2018-04-02T19:51:30.077Z,10.00
2018-04-02T19:53:58.050Z,10.00
2018-04-02T19:56:26.042Z,9.90
2018-04-02T19:58:53.901Z,9.80
2018-04-02T20:01:21.780Z,9.70
2018-04-02T20:03:49.452Z,9.70
2018-04-02T20:06:17.344Z,9.60
2018-04-02T20:08:45.263Z,9.50
2018-04-02T20:11:13.095Z,9.40
2018-04-02T20:13:41.715Z,9.30
2018-04-02T20:16:10.210Z,9.20
2018-04-02T20:18:38.289Z,9.20
2018-04-02T20:21:06.274Z,9.10
2018-04-02T20:23:34.294Z,9.00
2018-04-02T20:26:03.011Z,8.80
2018-04-02T20:28:30.898Z,8.70
2018-04-02T20:30:58.734Z,8.70
2018-04-02T20:33:26.685Z,8.60
2018-04-02T20:35:54.562Z,8.50
2018-04-02T20:38:22.421Z,8.40
2018-04-02T20:40:50.838Z,8.30
2018-04-02T20:43:18.681Z,8.30
2018-04-02T20:45:46.449Z,8.20
2018-04-02T20:48:14.406Z,8.10
2018-04-02T20:50:42.369Z,8.00
2018-04-02T20:53:11.060Z,8.00
2018-04-02T20:55:38.921Z,7.90
2018-04-02T20:58:06.957Z,7.90
2018-04-02T21:00:34.900Z,7.80
2018-04-02T21:03:02.925Z,7.80
2018-04-02T21:05:30.774Z,7.70
2018-04-02T21:07:59.438Z,7.60
2018-04-02T21:10:27.382Z,7.50
2018-04-02T21:12:55.149Z,7.50
2018-04-02T21:15:22.977Z,7.50
2018-04-02T21:17:51.702Z,7.40
2018-04-02T21:20:19.626Z,7.40
2018-04-02T21:22:47.750Z,7.40
2018-04-02T21:25:15.670Z,7.40
2018-04-02T21:27:43.654Z,7.40
2018-04-02T21:30:11.541Z,7.30
2018-04-02T21:32:39.269Z,7.30
2018-04-02T21:35:07.326Z,7.20
2018-04-02T21:37:35.211Z,7.20
2018-04-02T21:40:04.001Z,7.10
2018-04-02T21:42:31.829Z,7.10
2018-04-02T21:44:59.689Z,7.10
2018-04-02T21:47:27.553Z,7.10
2018-04-02T21:49:55.448Z,7.00
2018-04-02T21:52:23.328Z,7.00
2018-04-02T21:54:51.232Z,7.00
2018-04-02T21:57:18.929Z,6.90
2018-04-02T21:59:47.839Z,6.90
2018-04-02T22:02:16.218Z,6.90
2018-04-02T22:04:44.075Z,6.80
2018-04-02T22:07:13.610Z,6.80
2018-04-02T22:09:45.521Z,6.80
2018-04-02T22:12:13.237Z,6.80
2018-04-02T22:14:41.064Z,6.80
2018-04-02T22:17:08.962Z,6.80
2018-04-02T22:19:38.287Z,6.80
2018-04-02T22:22:06.036Z,6.70
2018-04-02T22:24:34.133Z,6.80
2018-04-02T22:27:02.645Z,6.80
2018-04-02T22:29:30.566Z,6.80
2018-04-02T22:31:58.399Z,6.80
2018-04-02T22:34:26.150Z,6.80
2018-04-02T22:36:53.966Z,6.80
2018-04-02T22:39:21.832Z,6.70
2018-04-02T22:41:49.771Z,6.70
2018-04-02T22:44:17.611Z,6.70
2018-04-02T22:46:45.737Z,6.70
2018-04-02T22:49:13.546Z,6.70
2018-04-02T22:51:41.422Z,6.70
2018-04-02T22:54:09.106Z,6.70
2018-04-02T22:56:36.863Z,6.70
2018-04-02T22:59:04.635Z,6.70
2018-04-02T23:01:32.533Z,6.70
2018-04-02T23:04:00.290Z,6.70
2018-04-02T23:06:28.170Z,6.70
2018-04-02T23:08:55.790Z,6.70
2018-04-02T23:11:23.527Z,6.70
2018-04-02T23:13:51.299Z,6.70
2018-04-02T23:16:19.009Z,6.60
2018-04-02T23:18:46.788Z,6.60
2018-04-02T23:21:14.699Z,6.60
2018-04-02T23:23:42.599Z,6.60
2018-04-02T23:26:10.432Z,6.50
2018-04-02T23:28:38.134Z,6.50
2018-04-02T23:31:06.046Z,6.40
2018-04-02T23:33:33.920Z,6.40
2018-04-02T23:36:01.633Z,6.30
2018-04-02T23:38:30.059Z,6.20
2018-04-02T23:40:58.044Z,6.10
2018-04-02T23:43:25.886Z,6.10
2018-04-02T23:45:53.697Z,6.10
2018-04-02T23:48:22.478Z,6.00
2018-04-02T23:50:50.245Z,5.90
2018-04-02T23:53:18.123Z,5.90
2018-04-02T23:55:46.831Z,5.80
2018-04-02T23:58:15.449Z,5.80
